Time;durP1;ratioP1;P1;durP2;ratioP2;P2;SDS_P1;SDS_P2;PMS_P1;PMS_P2;Temp;Humidity;BMP_temperature;BMP_pressure;BME280_temperature;BME280_humidity;BME280_pressure;Samples;Min_cycle;Max_cycle;Signal;HPM_P1;HPM_P2
2021/06/20 00:00:10;;;;;;;15.60;14.30;;;18.90;1.40;;;20.88;88.42;94932.16;646548;216;31877;-71
2021/06/20 00:02:52;;;;;;;16.10;14.80;;;19.30;1.40;;;20.98;88.23;94926.78;648219;216;31613;-71
2021/06/20 00:05:37;;;;;;;15.98;14.73;;;19.30;1.40;;;20.95;86.95;94932.63;646154;212;31624;-71
2021/06/20 00:08:19;;;;;;;15.68;14.18;;;19.10;1.40;;;21.00;86.17;94932.98;619738;226;32109;-71
2021/06/20 00:11:01;;;;;;;16.20;14.80;;;19.10;1.40;;;20.95;87.20;94927.20;645038;212;31862;-71
2021/06/20 00:13:42;;;;;;;15.43;14.18;;;19.10;1.40;;;20.93;87.54;94915.04;617951;222;31948;-70
2021/06/20 00:16:24;;;;;;;16.30;14.90;;;19.10;1.40;;;20.92;87.56;94908.03;647305;216;31666;-71
2021/06/20 00:19:09;;;;;;;15.38;14.10;;;19.10;1.40;;;20.92;87.17;94910.02;619430;222;32161;-71
2021/06/20 00:21:51;;;;;;;15.43;14.32;;;19.10;1.40;;;20.94;87.36;94906.22;647242;212;31628;-71
2021/06/20 00:24:32;;;;;;;15.15;13.95;;;19.10;1.40;;;20.99;86.69;94902.79;647861;212;31655;-71
2021/06/20 00:27:14;;;;;;;15.43;14.23;;;19.10;1.40;;;20.97;86.57;94903.09;645640;216;31771;-70
2021/06/20 00:29:56;;;;;;;15.63;14.32;;;19.00;1.40;;;20.96;86.71;94898.48;649570;216;31701;-71
2021/06/20 00:32:40;;;;;;;15.18;13.88;;;19.10;1.40;;;20.93;88.50;94892.55;648585;212;31600;-71
2021/06/20 00:35:51;;;;;;;15.50;14.18;;;19.10;1.40;;;20.94;89.06;94892.03;645922;216;31669;-71
2021/06/20 00:38:33;;;;;;;15.13;13.93;;;19.10;1.40;;;20.97;87.25;94889.80;647863;216;31612;-71
2021/06/20 00:41:14;;;;;;;14.52;13.43;;;19.00;1.40;;;20.95;87.50;94885.11;643812;216;31616;-71
2021/06/20 00:43:56;;;;;;;15.68;14.27;;;19.00;1.40;;;20.96;87.39;94890.52;645323;212;31620;-70
2021/06/20 00:46:38;;;;;;;14.70;13.50;;;19.00;1.40;;;20.96;88.48;94898.61;645835;216;31630;-71
2021/06/20 00:49:19;;;;;;;14.40;13.25;;;19.00;1.40;;;20.77;90.30;94898.59;618899;226;31953;-71
2021/06/20 00:52:01;;;;;;;14.85;13.65;;;19.00;1.40;;;20.71;89.80;94892.15;646373;212;31621;-71
2021/06/20 00:54:49;;;;;;;14.50;13.25;;;19.00;1.40;;;20.87;87.94;94894.60;647012;216;31648;-72
2021/06/20 00:57:31;;;;;;;14.63;13.52;;;19.00;1.40;;;20.92;88.08;94901.59;631786;220;31767;-71
2021/06/20 01:00:13;;;;;;;14.27;13.07;;;18.90;1.40;;;20.66;90.58;94900.83;646011;216;31620;-71
2021/06/20 01:05:29;;;;;;;15.75;14.48;;;18.60;1.40;;;20.55;90.69;94882.21;645891;212;31921;-70
2021/06/20 01:08:11;;;;;;;14.30;13.20;;;18.60;1.40;;;20.69;89.49;94874.13;646333;212;31646;-71
2021/06/20 01:10:55;;;;;;;14.80;13.57;;;18.70;1.40;;;20.66;89.73;94878.14;648026;212;31932;-70
2021/06/20 01:13:37;;;;;;;15.27;13.98;;;18.70;1.40;;;20.61;90.21;94870.96;647976;212;31622;-70
2021/06/20 01:16:18;;;;;;;15.40;14.10;;;18.70;1.40;;;20.56;91.79;94875.51;644871;216;31629;-71
2021/06/20 01:19:00;;;;;;;14.00;12.90;;;18.80;1.40;;;20.59;90.31;94871.49;647024;212;31613;-71
2021/06/20 01:21:42;;;;;;;14.30;13.20;;;18.80;1.40;;;20.63;89.14;94874.73;632725;221;31965;-71
2021/06/20 01:24:24;;;;;;;15.13;13.73;;;18.80;1.40;;;20.72;89.71;94874.04;646318;216;32023;-70
2021/06/20 01:27:05;;;;;;;14.82;13.52;;;18.80;1.40;;;20.76;88.83;94878.89;619030;222;32118;-70
2021/06/20 01:29:48;;;;;;;15.00;13.80;;;18.80;1.40;;;20.74;90.71;94881.77;646563;216;31638;-71
2021/06/20 01:32:32;;;;;;;14.73;13.63;;;18.80;1.40;;;20.75;90.00;94878.95;646824;212;34669;-70
2021/06/20 01:35:50;;;;;;;16.33;14.93;;;18.70;1.40;;;20.29;96.63;94872.86;646087;212;31869;-70
2021/06/20 01:38:32;;;;;;;17.73;15.95;;;18.50;1.40;;;20.30;96.43;94874.16;648520;216;31818;-71
2021/06/20 01:41:14;;;;;;;16.10;14.85;;;18.50;1.40;;;20.33;94.13;94870.94;647448;216;31603;-70
2021/06/20 01:43:56;;;;;;;16.40;15.18;;;18.50;1.40;;;20.27;94.41;94876.85;645845;216;31609;-71
2021/06/20 01:46:40;;;;;;;16.80;15.57;;;18.50;1.40;;;20.32;93.65;94887.52;646861;216;31727;-71
2021/06/20 01:49:22;;;;;;;16.15;14.60;;;18.50;1.40;;;20.34;94.28;94894.22;645929;212;31618;-70
2021/06/20 01:52:04;;;;;;;15.50;14.20;;;18.50;1.40;;;19.63;99.91;94902.63;646906;212;31625;-71
2021/06/20 01:54:50;;;;;;;16.12;14.82;;;18.00;1.40;;;19.48;100.00;94906.34;647246;216;31637;-71
2021/06/20 01:57:32;;;;;;;15.50;14.30;;;17.90;1.40;;;19.53;100.00;94900.30;645825;216;31696;-71
2021/06/20 02:00:14;;;;;;;16.05;14.45;;;17.90;1.40;;;19.77;97.20;94900.34;649090;212;31614;-71
2021/06/20 02:02:56;;;;;;;15.90;14.50;;;17.90;1.40;;;19.72;98.74;94897.64;646142;212;31626;-71
2021/06/20 02:05:37;;;;;;;15.52;14.30;;;17.90;1.40;;;19.68;98.16;94895.44;647434;216;32226;-69
2021/06/20 02:08:19;;;;;;;16.08;14.63;;;17.80;1.40;;;19.72;96.81;94890.08;645275;212;32215;-70
2021/06/20 02:11:04;;;;;;;16.50;15.15;;;17.80;1.40;;;19.66;99.49;94882.30;645704;216;32154;-71
2021/06/20 02:13:45;;;;;;;16.25;14.90;;;17.90;1.40;;;19.68;98.76;94874.27;645244;216;31693;-70
2021/06/20 02:16:27;;;;;;;16.67;15.30;;;17.90;1.40;;;19.71;98.30;94863.16;621563;222;32006;-70
2021/06/20 02:19:09;;;;;;;16.90;15.30;;;18.00;1.40;;;19.77;98.20;94877.03;647844;216;31712;-70
2021/06/20 02:21:51;;;;;;;17.70;16.20;;;18.00;1.40;;;19.90;98.20;94866.72;645830;216;31645;-71
2021/06/20 02:24:32;;;;;;;17.87;16.42;;;18.40;1.40;;;20.01;96.53;94872.30;644895;212;31623;-70
2021/06/20 02:27:14;;;;;;;16.70;15.50;;;18.30;1.40;;;19.98;96.31;94878.42;648842;212;31611;-71
2021/06/20 02:29:56;;;;;;;16.23;14.73;;;18.20;1.40;;;19.86;96.48;94872.98;646180;216;31624;-70
2021/06/20 02:32:37;;;;;;;15.55;14.20;;;18.10;1.40;;;19.52;98.02;94869.75;649814;216;31626;-70
2021/06/20 02:35:50;;;;;;;16.33;14.93;;;17.50;1.40;;;19.00;100.00;94863.19;645811;216;31880;-71
2021/06/20 02:38:32;;;;;;;15.77;14.18;;;17.30;1.40;;;19.01;100.00;94858.03;646896;216;31834;-71
2021/06/20 02:41:14;;;;;;;15.82;14.43;;;17.30;1.40;;;18.94;100.00;94852.51;622311;226;31927;-70
2021/06/20 02:43:55;;;;;;;16.20;14.70;;;17.30;1.40;;;19.12;100.00;94857.38;629970;221;31781;-71
2021/06/20 02:46:38;;;;;;;16.30;15.00;;;17.40;1.40;;;19.09;100.00;94857.53;644964;212;31626;-70
2021/06/20 02:49:19;;;;;;;16.25;14.85;;;17.50;1.40;;;19.16;100.00;94860.77;644900;212;31650;-71
2021/06/20 02:52:01;;;;;;;16.40;15.00;;;17.60;1.40;;;19.35;100.00;94867.52;646020;216;31614;-71
2021/06/20 02:57:30;;;;;;;14.80;13.70;;;18.00;1.40;;;19.37;100.00;94870.96;648915;212;31619;-71
2021/06/20 03:00:12;;;;;;;14.82;13.52;;;18.10;1.40;;;19.46;100.00;94873.83;647091;212;31614;-70
2021/06/20 03:05:31;;;;;;;14.63;13.43;;;17.70;1.40;;;18.89;100.00;94882.84;648542;216;31727;-70
2021/06/20 03:08:12;;;;;;;14.93;13.62;;;17.40;1.40;;;18.90;100.00;94879.53;647389;216;31615;-71
2021/06/20 03:11:00;;;;;;;14.98;13.88;;;17.30;1.40;;;18.81;100.00;94886.59;648882;216;31614;-78
2021/06/20 03:13:48;;;;;;;14.80;13.60;;;17.20;1.40;;;18.63;100.00;94888.55;646786;212;32036;-71
2021/06/20 03:16:30;;;;;;;14.95;13.75;;;17.10;1.40;;;18.51;100.00;94888.25;645869;212;31625;-71
2021/06/20 03:19:11;;;;;;;15.38;13.98;;;17.10;1.40;;;18.56;100.00;94892.33;647922;212;31693;-71
2021/06/20 03:21:59;;;;;;;15.10;13.90;;;17.30;1.40;;;18.75;100.00;94891.23;644906;213;31696;-71
2021/06/20 03:24:35;;;;;;;15.05;13.82;;;17.30;1.40;;;18.88;100.00;94905.59;650453;212;31615;-70
2021/06/20 03:27:16;;;;;;;14.80;13.68;;;17.40;1.40;;;19.05;100.00;94899.16;649956;212;31613;-70
2021/06/20 03:30:01;;;;;;;15.65;14.35;;;17.50;1.40;;;19.19;100.00;94901.20;646970;216;31771;-70
2021/06/20 03:32:43;;;;;;;14.65;13.45;;;17.60;1.40;;;19.12;100.00;94925.77;646079;212;31708;-70
2021/06/20 03:37:45;;;;;;;16.00;14.60;;;17.60;1.40;;;19.13;100.00;94946.16;647359;216;31651;-71
2021/06/20 03:41:33;;;;;;;15.07;13.88;;;17.40;1.40;;;19.02;100.00;94935.84;646825;212;31624;-71
2021/06/20 03:44:18;;;;;;;15.55;14.05;;;17.20;1.40;;;19.14;100.00;94938.98;647826;212;31613;-71
2021/06/20 03:46:59;;;;;;;16.75;15.05;;;17.20;1.40;;;19.23;100.00;94924.65;645326;212;31898;-71
2021/06/20 03:49:41;;;;;;;15.10;13.90;;;17.40;1.40;;;19.23;100.00;94904.03;647237;212;31602;-70
2021/06/20 03:52:23;;;;;;;15.48;14.07;;;17.50;1.40;;;19.39;100.00;94921.83;647554;216;32116;-70
2021/06/20 03:55:08;;;;;;;16.85;15.45;;;17.50;1.40;;;19.45;100.00;94926.92;648221;216;31615;-70
2021/06/20 03:57:50;;;;;;;17.20;15.70;;;17.80;1.40;;;19.48;100.00;94931.02;649976;212;31655;-71
2021/06/20 04:00:32;;;;;;;16.83;15.43;;;17.90;1.40;;;19.67;100.00;94940.13;648089;216;31629;-71
2021/06/20 04:03:13;;;;;;;16.15;14.70;;;18.10;1.40;;;19.90;99.29;94941.44;645476;216;31801;-71
2021/06/20 04:05:55;;;;;;;16.48;14.87;;;18.30;1.40;;;19.96;99.43;94932.02;647192;216;31649;-70
2021/06/20 04:08:37;;;;;;;16.83;15.40;;;18.30;1.40;;;20.14;98.34;94939.22;617411;225;32062;-71
2021/06/20 04:11:21;;;;;;;15.60;14.23;;;18.40;1.40;;;20.15;98.01;94943.50;647224;216;43028;-70
2021/06/20 04:16:37;;;;;;;15.40;14.00;;;18.50;1.40;;;20.21;97.72;94954.68;619581;225;32220;-71
2021/06/20 04:19:19;;;;;;;15.57;14.13;;;18.60;1.40;;;20.34;98.01;94954.20;646205;212;31723;-71
2021/06/20 04:22:01;;;;;;;15.05;13.85;;;18.70;1.40;;;20.45;97.21;94968.16;646988;216;31939;-71
2021/06/20 04:24:42;;;;;;;15.13;13.73;;;18.90;1.40;;;20.74;95.57;94982.50;619713;226;31983;-72
2021/06/20 04:27:27;;;;;;;14.10;12.90;;;19.20;1.40;;;20.97;94.18;94995.61;646822;212;31884;-71
2021/06/20 04:30:12;;;;;;;14.82;13.52;;;19.40;1.40;;;21.21;93.75;94989.67;647366;212;31617;-71
2021/06/20 04:32:51;;;;;;;16.02;14.32;;;19.40;1.40;;;21.39;94.07;94989.59;645664;216;31711;-71
2021/06/20 04:35:51;;;;;;;15.30;14.10;;;19.40;1.40;;;21.14;97.19;94990.47;650736;212;32023;-71
2021/06/20 04:38:33;;;;;;;16.05;14.75;;;19.50;1.40;;;21.35;98.03;94998.58;645684;216;31642;-70
2021/06/20 04:41:17;;;;;;;17.20;15.90;;;19.80;1.40;;;21.24;99.66;95000.63;648194;216;34241;-71
2021/06/20 04:43:58;;;;;;;16.30;15.00;;;19.90;1.40;;;21.32;98.83;95003.54;647362;216;31657;-71
2021/06/20 04:46:39;;;;;;;15.50;14.20;;;20.10;1.40;;;21.60;96.25;95002.85;645088;212;31617;-71
2021/06/20 04:49:20;;;;;;;15.70;14.30;;;20.40;1.40;;;21.95;93.15;95006.13;647142;212;31605;-71
2021/06/20 04:52:05;;;;;;;14.93;13.62;;;20.80;1.40;;;22.18;90.49;95010.25;649030;212;31647;-71
2021/06/20 04:54:50;;;;;;;14.75;13.45;;;21.10;1.40;;;22.35;90.92;95012.41;644544;216;42408;-71
2021/06/20 04:57:31;;;;;;;14.90;13.70;;;21.20;1.40;;;22.33;90.37;95018.34;646081;212;32185;-71
2021/06/20 05:00:15;;;;;;;14.13;12.73;;;21.20;1.40;;;22.51;88.04;95014.88;648478;216;31735;-71
2021/06/20 05:02:58;;;;;;;13.65;12.45;;;21.40;1.40;;;22.69;86.38;95007.63;645631;216;31638;-71
2021/06/20 05:05:38;;;;;;;14.40;13.00;;;21.40;1.40;;;22.78;84.94;95005.62;645899;216;31604;-70
2021/06/20 05:08:20;;;;;;;14.50;13.20;;;21.50;1.40;;;22.85;84.80;94998.12;648777;212;31801;-70
2021/06/20 05:11:01;;;;;;;14.10;13.00;;;21.50;1.40;;;22.96;83.40;94993.34;645566;216;32733;-70
2021/06/20 05:13:43;;;;;;;13.70;12.50;;;21.50;1.40;;;23.17;80.64;94995.94;619330;222;31965;-72
2021/06/20 05:18:59;;;;;;;13.57;12.37;;;21.70;1.40;;;23.13;82.46;95012.41;645079;212;32024;-71
2021/06/20 05:21:44;;;;;;;13.30;12.30;;;21.70;1.40;;;23.14;81.17;95018.69;644041;215;31791;-71
2021/06/20 05:24:25;;;;;;;13.77;12.37;;;21.80;1.40;;;23.13;81.75;95018.97;650650;216;31702;-70
2021/06/20 05:27:07;;;;;;;13.43;12.17;;;21.80;1.40;;;23.24;81.06;95026.27;640856;215;32770;-72
2021/06/20 05:29:49;;;;;;;13.20;12.10;;;21.80;1.40;;;23.40;79.38;95035.36;646608;212;42216;-72
2021/06/20 05:32:31;;;;;;;14.00;12.60;;;21.90;1.40;;;23.53;79.21;95046.14;619225;226;31987;-71
2021/06/20 05:35:51;;;;;;;14.27;12.67;;;22.10;1.40;;;23.60;78.89;95052.63;646121;216;32595;-71
2021/06/20 05:38:33;;;;;;;13.30;12.05;;;22.20;1.40;;;23.89;78.01;95057.80;648825;212;31787;-71
2021/06/20 05:41:14;;;;;;;12.63;11.43;;;22.40;1.40;;;23.96;76.28;95068.52;646103;212;31618;-71
2021/06/20 05:43:56;;;;;;;13.65;12.25;;;22.50;1.40;;;24.03;75.82;95071.25;647950;216;31658;-71
2021/06/20 05:46:38;;;;;;;12.80;11.60;;;22.50;1.40;;;23.94;75.90;95076.69;646444;212;31635;-70
2021/06/20 05:49:20;;;;;;;12.43;11.32;;;22.50;1.40;;;23.92;76.99;95075.11;647877;216;31728;-71
2021/06/20 05:52:01;;;;;;;12.50;11.30;;;22.40;1.40;;;23.84;76.14;95073.33;647550;212;32195;-71
2021/06/20 05:54:50;;;;;;;13.55;11.55;;;22.40;1.40;;;23.88;75.89;95075.61;646922;212;31770;-71
2021/06/20 05:57:28;;;;;;;14.90;11.02;;;22.40;1.40;;;23.83;75.44;95086.74;645187;212;31955;-71
2021/06/20 06:00:10;;;;;;;12.50;11.10;;;22.30;1.40;;;23.76;76.36;95095.53;619989;222;32004;-71
2021/06/20 06:02:52;;;;;;;12.50;11.20;;;22.20;1.40;;;23.58;76.70;95107.73;649406;216;31638;-71
2021/06/20 06:05:34;;;;;;;12.88;10.38;;;22.10;1.40;;;23.53;76.45;95114.27;645767;216;31608;-71
2021/06/20 06:08:15;;;;;;;12.60;10.80;;;22.10;1.40;;;23.54;77.67;95119.89;645781;212;31653;-71
2021/06/20 06:10:57;;;;;;;11.70;10.50;;;21.90;1.40;;;23.53;76.76;95124.23;647583;216;31705;-71
2021/06/20 06:13:39;;;;;;;14.38;10.88;;;22.00;1.40;;;23.35;77.52;95131.61;646084;212;31682;-71
2021/06/20 06:16:24;;;;;;;13.40;11.37;;;21.90;1.40;;;23.36;77.44;95138.30;645389;216;31608;-72
2021/06/20 06:19:06;;;;;;;12.90;11.57;;;21.80;1.40;;;23.36;78.08;95136.60;621953;225;32021;-71
2021/06/20 06:21:47;;;;;;;14.93;11.13;;;21.70;1.40;;;23.33;77.15;95140.83;647538;216;31617;-71
2021/06/20 06:24:29;;;;;;;13.80;11.27;;;21.80;1.40;;;23.26;78.18;95146.00;647189;212;31665;-71
2021/06/20 06:27:13;;;;;;;12.23;10.80;;;21.70;1.40;;;23.28;78.04;95141.90;644587;212;31646;-73
2021/06/20 06:30:00;;;;;;;12.30;11.10;;;21.70;1.40;;;23.29;78.33;95147.42;646268;216;31645;-71
2021/06/20 06:32:43;;;;;;;14.18;11.75;;;21.60;1.40;;;23.15;79.65;95156.02;647859;216;31760;-71
2021/06/20 06:35:50;;;;;;;12.60;11.37;;;21.50;1.40;;;22.96;80.28;95152.56;649149;216;31648;-70
2021/06/20 06:38:32;;;;;;;12.43;11.23;;;21.50;1.40;;;23.08;79.84;95151.97;647949;216;31644;-71
2021/06/20 06:41:18;;;;;;;14.53;11.67;;;21.50;1.40;;;23.09;80.40;95150.11;645288;212;31812;-70
2021/06/20 06:43:55;;;;;;;13.52;12.13;;;21.40;1.40;;;23.01;80.88;95150.66;646628;216;31650;-70
2021/06/20 06:46:37;;;;;;;17.27;11.23;;;21.40;1.40;;;22.81;82.08;95159.52;648170;212;31629;-71
2021/06/20 06:49:19;;;;;;;13.67;10.93;;;21.40;1.40;;;22.78;81.32;95163.88;646451;212;32185;-71
2021/06/20 06:52:01;;;;;;;14.75;11.20;;;21.50;1.40;;;22.83;81.63;95163.06;646556;216;31942;-72
2021/06/20 06:54:50;;;;;;;14.40;11.02;;;21.50;1.40;;;22.87;80.96;95160.72;646584;216;31711;-71
2021/06/20 06:57:24;;;;;;;13.88;10.60;;;21.50;1.40;;;23.13;79.57;95168.21;647095;212;31871;-71
2021/06/20 07:00:08;;;;;;;14.77;10.40;;;21.60;1.40;;;23.18;78.97;95174.00;644423;216;31639;-71
2021/06/20 07:02:49;;;;;;;12.10;10.90;;;21.70;1.40;;;23.16;78.71;95182.63;618450;225;31970;-71
2021/06/20 07:05:31;;;;;;;15.25;10.98;;;21.70;1.40;;;23.16;79.53;95181.22;647181;216;31642;-70
2021/06/20 07:08:13;;;;;;;15.77;10.80;;;21.60;1.40;;;23.17;78.85;95179.78;646228;216;32056;-70
2021/06/20 07:10:54;;;;;;;14.52;11.00;;;21.70;1.40;;;23.39;78.68;95175.78;647245;216;31645;-70
2021/06/20 07:13:36;;;;;;;13.77;11.02;;;21.80;1.40;;;23.41;78.46;95182.64;648443;212;31625;-71
2021/06/20 07:16:18;;;;;;;16.10;11.12;;;21.80;1.40;;;23.42;78.42;95186.57;644689;216;31643;-71
2021/06/20 07:18:59;;;;;;;13.95;11.12;;;21.90;1.40;;;23.52;78.32;95182.59;648492;212;31739;-71
2021/06/20 07:21:44;;;;;;;13.35;10.73;;;21.90;1.40;;;23.41;78.95;95174.88;647909;216;31635;-70
2021/06/20 07:24:26;;;;;;;11.52;10.43;;;21.90;1.40;;;23.61;77.44;95171.11;644569;212;31775;-72
2021/06/20 07:27:12;;;;;;;15.75;10.82;;;22.10;1.40;;;23.90;76.41;95168.11;648465;216;31683;-71
2021/06/20 07:30:40;;;;;;;12.82;10.15;;;22.30;1.40;;;24.33;74.93;95149.02;648143;216;31689;-70
2021/06/20 07:35:52;;;;;;;12.27;9.53;;;22.80;1.40;;;24.20;74.58;95154.47;646226;216;31675;-72
2021/06/20 07:38:34;;;;;;;15.40;9.27;;;22.60;1.40;;;24.18;75.55;95160.90;647941;216;31765;-71
2021/06/20 07:41:15;;;;;;;11.20;10.00;;;22.60;1.40;;;24.27;75.00;95165.52;645075;212;43726;-71
2021/06/20 07:43:57;;;;;;;11.15;9.48;;;22.70;1.40;;;24.04;75.46;95170.41;646712;216;32467;-71
2021/06/20 07:46:41;;;;;;;12.40;9.50;;;22.60;1.40;;;24.20;77.06;95172.72;646659;216;31580;-72
2021/06/20 07:49:24;;;;;;;11.60;8.93;;;22.80;1.40;;;24.50;75.59;95178.48;644837;212;31700;-71
2021/06/20 07:52:06;;;;;;;13.98;9.68;;;22.90;1.40;;;24.77;73.24;95184.95;648010;216;31657;-71
2021/06/20 07:54:50;;;;;;;13.35;10.02;;;23.10;1.40;;;24.62;73.58;95189.33;646602;212;31606;-71
2021/06/20 08:00:08;;;;;;;14.60;8.48;;;22.70;1.40;;;24.00;72.47;95180.62;648033;213;31824;-71
2021/06/20 08:02:48;;;;;;;14.63;8.60;;;22.70;1.40;;;24.51;71.90;95187.67;649674;216;32205;-71
2021/06/20 08:05:30;;;;;;;14.60;8.32;;;23.10;1.40;;;24.77;70.70;95185.64;648480;212;31740;-71
2021/06/20 08:08:12;;;;;;;13.27;7.87;;;23.50;1.40;;;25.11;67.42;95180.84;645759;216;31591;-71
2021/06/20 08:10:53;;;;;;;14.38;8.25;;;23.70;1.40;;;25.27;67.60;95175.09;648116;212;32119;-71
2021/06/20 08:13:35;;;;;;;14.18;8.65;;;23.90;1.40;;;25.39;67.68;95166.13;647487;212;42202;-71
2021/06/20 08:16:17;;;;;;;17.15;7.50;;;23.90;1.40;;;25.16;66.48;95162.71;646314;212;31570;-71
2021/06/20 08:18:58;;;;;;;17.95;7.70;;;23.70;1.40;;;25.32;67.43;95169.34;647340;212;31568;-70
2021/06/20 08:21:42;;;;;;;16.25;8.15;;;23.70;1.40;;;25.46;66.10;95165.41;648602;216;31595;-70
2021/06/20 08:24:22;;;;;;;19.35;7.57;;;24.00;1.40;;;25.54;67.94;95168.78;648128;212;31580;-71
2021/06/20 08:27:04;;;;;;;15.20;7.40;;;24.10;1.40;;;25.67;66.66;95170.06;646927;216;42189;-71
2021/06/20 08:29:48;;;;;;;17.60;7.47;;;24.30;1.40;;;25.27;67.45;95172.84;648037;216;31566;-71
2021/06/20 08:32:29;;;;;;;14.32;7.12;;;24.00;1.40;;;25.08;67.04;95173.25;646697;213;42194;-72
2021/06/20 08:35:51;;;;;;;16.58;6.65;;;24.10;1.40;;;25.50;65.08;95171.61;648157;212;31563;-72
2021/06/20 08:38:33;;;;;;;11.38;6.00;;;24.40;1.40;;;25.65;63.94;95184.13;649027;212;42217;-71
2021/06/20 08:41:15;;;;;;;11.80;6.12;;;24.40;1.40;;;26.09;62.14;95180.93;649133;216;35547;-70
2021/06/20 08:44:00;;;;;;;15.70;6.07;;;24.60;1.40;;;26.02;62.47;95187.30;648508;212;31576;-70
2021/06/20 08:46:41;;;;;;;12.80;7.10;;;24.60;1.40;;;26.37;60.88;95190.07;645935;212;31553;-71
2021/06/20 08:49:23;;;;;;;14.70;6.97;;;24.90;1.40;;;26.72;59.26;95185.41;645508;216;31636;-71
2021/06/20 08:52:08;;;;;;;13.48;5.87;;;24.90;1.40;;;26.89;58.25;95180.11;648746;216;31614;-71
2021/06/20 08:57:32;;;;;;;12.57;6.78;;;25.20;1.40;;;27.41;56.11;95182.36;619632;225;31919;-71
2021/06/20 09:00:14;;;;;;;13.93;5.97;;;25.60;1.40;;;27.98;56.33;95179.79;648669;212;31591;-71
2021/06/20 09:02:57;;;;;;;12.60;6.30;;;26.30;1.40;;;28.30;56.21;95181.38;645724;216;31604;-71
2021/06/20 09:05:39;;;;;;;16.20;6.72;;;26.70;1.40;;;27.88;54.83;95168.86;645974;212;32118;-71
2021/06/20 09:08:27;;;;;;;13.23;6.15;;;26.00;1.40;;;27.49;55.11;95172.48;619524;223;32237;-72
2021/06/20 09:11:25;;;;;;;15.30;6.15;;;25.90;1.40;;;28.12;54.45;95160.80;648417;216;31729;-71
2021/06/20 09:14:11;;;;;;;12.37;5.87;;;26.50;1.40;;;28.56;54.65;95156.14;646347;216;31533;-71
2021/06/20 09:16:52;;;;;;;15.35;6.30;;;26.40;1.40;;;28.09;53.76;95152.76;645674;216;42297;-72
2021/06/20 09:19:34;;;;;;;14.32;5.97;;;25.90;1.40;;;28.57;54.58;95160.19;617888;222;32016;-71
2021/06/20 09:22:16;;;;;;;15.07;6.05;;;26.20;1.40;;;29.08;53.28;95151.79;646341;212;31871;-72
2021/06/20 09:25:01;;;;;;;13.02;5.82;;;26.80;1.40;;;28.99;51.53;95147.06;652126;216;31868;-72
2021/06/20 09:27:43;;;;;;;15.10;6.05;;;27.00;1.40;;;29.35;50.87;95145.47;647826;212;31574;-72
2021/06/20 09:30:25;;;;;;;13.82;6.45;;;27.50;1.40;;;30.34;48.62;95125.77;644790;216;31590;-72
2021/06/20 09:35:56;;;;;;;10.43;5.80;;;29.00;1.40;;;32.15;45.65;95118.48;647752;213;31665;-72
2021/06/20 09:38:42;;;;;;;13.95;5.97;;;29.10;1.40;;;29.95;48.93;95118.98;648731;216;31707;-72
2021/06/20 09:41:25;;;;;;;12.00;5.40;;;27.80;1.40;;;30.17;48.25;95115.36;646102;216;31597;-72
2021/06/20 09:46:53;;;;;;;14.73;6.03;;;27.90;1.40;;;31.93;45.41;95108.86;646009;212;31570;-74
2021/06/20 09:49:41;;;;;;;14.85;6.57;;;28.70;1.40;;;33.65;44.03;95109.29;645974;213;31785;-72
2021/06/20 09:52:27;;;;;;;15.23;5.80;;;29.70;1.40;;;31.81;45.39;95102.55;647383;212;32246;-72
2021/06/20 09:55:11;;;;;;;14.32;5.62;;;28.70;1.40;;;33.46;43.20;95101.42;619574;222;32031;-72
2021/06/20 09:57:53;;;;;;;13.23;5.28;;;30.20;1.40;;;34.78;42.76;95098.95;646738;216;32475;-72
2021/06/20 10:00:36;;;;;;;15.30;6.10;;;30.50;1.40;;;34.72;40.99;95093.66;645983;216;31652;-72
2021/06/20 10:03:23;;;;;;;10.85;5.18;;;30.30;1.40;;;36.39;37.01;95085.89;648077;212;31588;-72
2021/06/20 10:06:04;;;;;;;14.77;5.40;;;31.40;1.40;;;36.87;38.34;95084.92;631875;221;31724;-73
2021/06/20 10:08:46;;;;;;;11.85;5.85;;;31.00;1.40;;;36.93;38.69;95082.05;648467;212;31644;-72
2021/06/20 10:11:34;;;;;;;12.43;5.45;;;30.80;1.40;;;37.43;37.32;95083.81;651098;216;31730;-74
2021/06/20 10:14:22;;;;;;;12.95;5.60;;;31.20;1.40;;;37.56;35.71;95083.20;646504;212;32392;-73
2021/06/20 10:17:10;;;;;;;12.13;5.25;;;31.80;1.40;;;38.72;34.58;95086.41;647872;216;42212;-73
2021/06/20 10:19:59;;;;;;;14.48;6.15;;;32.60;1.40;;;39.05;33.01;95077.81;645584;216;31705;-71
2021/06/20 10:22:48;;;;;;;10.32;5.37;;;33.40;1.40;;;40.02;32.85;95081.39;618574;226;32657;-73
2021/06/20 10:25:31;;;;;;;15.20;6.28;;;32.50;1.40;;;38.80;35.17;95085.31;646364;216;31737;-72
2021/06/20 10:28:13;;;;;;;14.30;6.20;;;30.80;1.40;;;37.63;35.31;95081.44;645690;216;32173;-72
2021/06/20 10:30:55;;;;;;;11.20;5.37;;;30.50;1.40;;;37.52;35.98;95085.04;648809;216;31832;-73
2021/06/20 10:35:59;;;;;;;18.83;10.73;;;31.10;1.40;;;35.79;38.39;95075.73;646002;216;31702;-72
2021/06/20 10:38:44;;;;;;;12.65;6.40;;;30.30;1.40;;;35.94;38.72;95075.15;645630;212;42255;-72
2021/06/20 10:41:25;;;;;;;15.00;6.30;;;30.70;1.40;;;36.27;37.13;95072.41;632507;217;31761;-72
2021/06/20 10:44:07;;;;;;;16.10;7.00;;;30.40;1.40;;;35.57;38.55;95064.86;646697;212;31663;-73
2021/06/20 10:49:26;;;;;;;15.25;6.30;;;29.90;1.40;;;35.21;39.38;95057.34;646848;216;31641;-72
2021/06/20 10:54:42;;;;;;;13.73;6.20;;;30.20;1.40;;;34.05;41.48;95049.45;646104;216;31630;-73
2021/06/20 10:57:27;;;;;;;13.27;5.65;;;29.30;1.40;;;35.67;38.51;95045.61;648335;212;31614;-73
2021/06/20 11:00:08;;;;;;;14.07;6.20;;;29.40;1.40;;;34.85;38.72;95045.33;620500;222;31924;-72
2021/06/20 11:02:55;;;;;;;11.93;5.82;;;28.80;1.40;;;34.20;40.39;95045.84;645343;216;31616;-72
2021/06/20 11:05:46;;;;;;;11.45;6.53;;;28.80;1.40;;;34.22;41.15;95044.47;647951;213;31700;-72
2021/06/20 11:08:28;;;;;;;14.75;5.62;;;29.60;1.40;;;34.65;39.76;95034.92;648372;212;31588;-72
2021/06/20 11:13:49;;;;;;;11.70;5.50;;;30.10;1.40;;;35.10;39.94;95035.43;647078;212;31594;-72
2021/06/20 11:16:36;;;;;;;12.07;5.75;;;30.40;1.40;;;36.05;36.77;95029.39;647809;216;31593;-73
2021/06/20 11:22:04;;;;;;;14.77;6.57;;;29.90;1.40;;;35.12;38.76;95020.45;645460;212;32095;-72
2021/06/20 11:24:51;;;;;;;12.60;6.30;;;29.80;1.40;;;34.26;39.97;95014.05;619425;222;31954;-72
2021/06/20 11:27:31;;;;;;;11.63;6.47;;;29.60;1.40;;;34.29;39.71;95006.73;618936;226;32043;-71
2021/06/20 11:30:13;;;;;;;16.55;5.60;;;29.60;1.40;;;34.63;40.09;95005.03;646999;212;31575;-72
2021/06/20 11:32:54;;;;;;;16.85;6.20;;;29.80;1.40;;;34.47;39.92;95000.90;646263;212;31605;-72
2021/06/20 11:35:57;;;;;;;15.57;6.15;;;29.80;1.40;;;33.78;40.87;94985.40;647559;216;31641;-73
2021/06/20 11:38:45;;;;;;;12.75;5.95;;;29.90;1.40;;;36.25;39.17;94975.29;649092;212;32218;-72
2021/06/20 11:41:26;;;;;;;15.10;6.32;;;31.30;1.40;;;36.54;37.61;94966.09;620417;222;32238;-72
2021/06/20 11:44:08;;;;;;;13.43;6.12;;;31.40;1.40;;;36.40;36.13;94957.35;647834;212;31728;-72
2021/06/20 11:46:50;;;;;;;14.27;5.80;;;30.70;1.40;;;37.35;36.14;94943.53;650819;212;31700;-72
2021/06/20 11:49:31;;;;;;;14.18;5.75;;;31.10;1.40;;;37.17;35.60;94930.44;647689;212;31631;-72
2021/06/20 11:52:22;;;;;;;14.23;6.35;;;31.30;1.40;;;36.75;37.68;94926.03;646875;212;31625;-74
2021/06/20 11:55:14;;;;;;;13.25;5.80;;;31.30;1.40;;;35.78;38.48;94919.47;644642;212;31658;-72
2021/06/20 11:57:55;;;;;;;13.98;5.75;;;30.30;1.40;;;35.94;38.44;94924.86;646328;216;31584;-72
2021/06/20 12:00:40;;;;;;;14.77;5.45;;;29.70;1.40;;;34.74;38.30;94924.63;647048;216;31597;-72
2021/06/20 12:03:24;;;;;;;11.95;5.70;;;29.20;1.40;;;33.30;38.48;94928.80;648354;212;32499;-72
2021/06/20 12:06:04;;;;;;;16.00;6.25;;;28.60;1.40;;;32.86;41.07;94932.05;618107;225;31928;-71